Latest Weather Observations for Cape Byron

IDN60801

Issued at 9:02 pm EDT Sunday 26 February 2017 (issued every 30 minutes, with the page automatically refreshed every 10 minutes)

About weather observations | Map of weather stations | Latest weather observations for NSW | Other Formats
Station Details ID: 058216 Name: CAPE BYRON AWS Lat: -28.64 Lon: 153.64 Height: 95.0 m
Data from the previous 72 hours. | See also: Recent months at Cape Byron
Date/Time
EDT
Temp
°C
App
Temp
°C
Dew
Point
°C
Rel
Hum
%
Delta-T
°C
Wind Press
QNH
hPa
Press
MSL
hPa
Rain since
9am
mm
Dir  Spd
km/h
Gust
km/h
Spd
kts
Gust
kts
26/09:00pm 23.2 18.2 19.2 78 2.6 SE 44 54 24 29 1018.1 1017.6 0.0
26/08:59pm 23.4 18.0 19.3 78 2.6 S 46 63 25 34 1018.1 1017.6 0.0
26/08:58pm 24.1 19.7 20.4 80 2.4 S 44 63 24 34 1018.1 1017.6 0.0
26/08:30pm 24.0 19.3 20.7 82 2.2 S 46 56 25 30 1018.0 1017.5 0.0
26/08:19pm 24.1 21.3 21.0 83 2.0 S 37 50 20 27 1017.8 1017.3 0.0
26/08:00pm 24.1 20.8 19.2 74 3.1 SSE 35 48 19 26 1017.7 1017.2 0.0
26/07:30pm 23.9 19.9 19.4 76 2.9 SSE 39 54 21 29 1017.2 1016.7 0.0
26/07:00pm 24.3 21.0 20.8 81 2.3 S 39 48 21 26 1017.2 1016.7 0.0
26/06:30pm 24.5 21.9 20.0 76 2.9 S 33 46 18 25 1017.0 1016.5 0.0
26/06:00pm 24.5 20.5 17.7 66 4.3 S 35 44 19 24 1017.0 1016.5 0.0
26/05:47pm 24.7 21.5 18.6 69 3.9 SSE 33 44 18 24 1017.0 1016.5 0.0
26/05:30pm 25.2 22.4 20.2 74 3.3 SSE 35 54 19 29 1016.6 1016.1 0.0
26/05:28pm 25.0 21.6 19.8 73 3.4 SSE 37 54 20 29 1016.6 1016.1 0.0
26/05:00pm 24.9 21.8 18.8 69 3.9 S 33 43 18 23 1016.7 1016.2 0.0
26/04:30pm 25.0 21.6 19.1 70 3.8 S 35 43 19 23 1016.5 1016.0 0.0
26/04:00pm 25.0 21.0 17.7 64 4.6 S 35 41 19 22 1016.5 1016.0 0.0
26/03:30pm 25.2 21.2 18.4 66 4.3 S 37 44 20 24 1016.7 1016.2 0.0
26/03:00pm 25.5 22.0 17.4 61 5.1 SSE 32 41 17 22 1016.8 1016.3 0.0
26/02:30pm 26.3 22.4 16.5 54 6.1 SSE 32 44 17 24 1016.8 1016.3 0.0
26/02:00pm 26.6 22.2 15.6 50 6.7 S 33 46 18 25 1017.2 1016.7 0.0
26/01:30pm 25.7 22.3 17.6 61 5.1 SSE 32 41 17 22 1017.5 1017.0 0.0
26/01:00pm 25.0 23.4 19.1 70 3.8 S 26 35 14 19 1017.6 1017.1 0.0
26/12:30pm 25.7 22.7 16.8 58 5.5 S 28 33 15 18 1017.7 1017.2 0.0
26/12:00pm 26.3 23.3 16.8 56 5.9 S 28 35 15 19 1017.9 1017.4 0.0
26/11:30am 25.7 21.8 15.4 53 6.3 S 30 35 16 19 1018.0 1017.5 0.0
26/11:00am 25.7 23.2 17.1 59 5.4 S 26 33 14 18 1018.0 1017.5 0.0
26/10:30am 25.1 21.5 16.3 58 5.4 S 30 35 16 19 1017.8 1017.3 0.0
26/10:00am 25.3 22.4 16.2 57 5.6 SSE 26 33 14 18 1017.8 1017.3 0.0
26/09:30am 24.0 24.1 19.9 78 2.7 SSW 19 24 10 13 1017.5 1017.0 0.0
26/09:00am 22.3 21.9 18.9 81 2.2 SW 19 24 10 13 1017.3 1016.8 0.0
26/08:30am 22.1 21.8 19.1 83 1.9 SW 19 24 10 13 1017.0 1016.5 0.0
26/08:00am 21.6 21.5 18.8 84 1.8 SW 17 22 9 12 1016.7 1016.2 0.0
26/07:30am 21.1 21.0 18.7 86 1.5 SW 17 20 9 11 1016.4 1015.9 0.0
26/07:00am 21.0 20.6 18.8 87 1.4 SW 19 24 10 13 1015.9 1015.5 0.0
26/06:30am 20.9 20.8 18.7 87 1.4 SW 17 24 9 13 1015.4 1014.9 0.0
26/06:00am 21.4 21.1 19.1 87 1.5 SSW 19 26 10 14 1015.3 1014.8 0.0
26/05:30am 21.4 21.0 19.0 86 1.5 SSW 19 22 10 12 1015.0 1014.5 0.0
26/05:00am 21.7 21.7 18.9 84 1.8 SW 17 24 9 13 1015.0 1014.5 0.0
26/04:30am 22.0 21.5 19.0 83 1.9 SW 20 30 11 16 1015.0 1014.5 0.0
26/04:00am 21.7 21.7 18.9 84 1.8 SW 17 24 9 13 1014.9 1014.4 0.0
26/03:30am 22.5 21.5 17.6 74 3.0 SSW 19 30 10 16 1015.0 1014.5 0.0
26/03:00am 23.8 21.8 18.2 71 3.5 S 26 37 14 20 1015.1 1014.6 0.0
26/02:30am 23.9 21.4 19.8 78 2.6 S 32 39 17 21 1015.3 1014.8 0.0
26/02:00am 24.0 21.3 19.3 75 3.0 S 32 39 17 21 1015.8 1015.4 0.0
26/01:30am 24.1 21.2 19.2 74 3.1 S 33 43 18 23 1016.1 1015.7 0.0
26/01:00am 24.1 20.6 18.7 72 3.4 S 35 43 19 23 1016.7 1016.2 0.0
26/12:30am 24.0 21.0 19.1 74 3.1 S 33 41 18 22 1017.0 1016.5 0.0
26/12:00am 24.1 20.9 19.4 75 3.0 S 35 44 19 24 1017.2 1016.7 0.0
 
Date/Time
EDT
Temp
°C
App
Temp
°C
Dew
Point
°C
Rel
Hum
%
Delta-T
°C
Wind Press
QNH
hPa
Press
MSL
hPa
Rain since
9am
mm
Dir  Spd
km/h
Gust
km/h
Spd
kts
Gust
kts
25/11:30pm 24.2 21.7 18.8 72 3.4 S 30 37 16 20 1017.2 1016.7 0.0
25/11:00pm 24.3 21.4 18.9 72 3.4 S 32 43 17 23 1017.3 1016.8 0.0
25/10:30pm 24.1 21.4 18.5 71 3.6 S 30 37 16 20 1017.5 1017.0 0.0
25/10:00pm 24.1 21.3 18.3 70 3.7 S 30 39 16 21 1017.5 1017.0 0.0
25/09:30pm 24.2 21.9 19.3 74 3.1 S 30 37 16 20 1017.0 1016.5 0.0
25/09:00pm 24.1 21.4 17.6 67 4.1 SSE 28 37 15 20 1016.9 1016.4 0.0
25/08:30pm 24.2 21.2 16.7 63 4.6 SSE 28 35 15 19 1016.7 1016.2 0.0
25/08:00pm 24.2 20.3 16.5 62 4.7 SSE 32 43 17 23 1016.6 1016.1 0.0
25/07:30pm 24.3 21.1 17.3 65 4.4 SSE 30 43 16 23 1016.3 1015.8 0.0
25/07:00pm 24.3 20.0 15.8 59 5.2 SSE 33 43 18 23 1015.7 1015.3 0.0
25/06:30pm 24.7 21.2 16.4 60 5.1 SSE 30 37 16 20 1015.6 1015.1 0.0
25/06:00pm 25.2 21.6 17.1 60 5.0 SSE 32 41 17 22 1015.5 1015.0 0.0
25/05:30pm 25.5 21.4 16.4 57 5.6 S 33 43 18 23 1015.4 1014.9 0.0
25/05:00pm 25.7 21.7 16.8 58 5.5 S 33 43 18 23 1015.4 1014.9 0.0
25/04:30pm 25.9 22.2 17.0 58 5.5 S 32 41 17 22 1015.3 1014.8 0.0
25/04:00pm 26.1 22.5 17.2 58 5.6 S 32 41 17 22 1015.5 1015.0 0.0
25/03:30pm 26.1 22.3 17.2 58 5.6 S 33 44 18 24 1015.6 1015.1 0.0
25/03:00pm 25.9 22.0 17.0 58 5.5 SSE 33 44 18 24 1015.9 1015.5 0.0
25/02:30pm 26.2 22.5 17.0 57 5.7 SSE 32 41 17 22 1016.4 1015.9 0.0
25/02:00pm 26.2 22.6 17.3 58 5.6 S 32 43 17 23 1016.6 1016.1 0.0
25/01:30pm 26.2 23.1 18.3 61 5.0 SSE 32 44 17 24 1016.8 1016.3 0.0
25/01:00pm 25.0 21.7 18.0 65 4.4 S 32 44 17 24 1017.1 1016.6 0.0
25/12:30pm 25.1 21.4 19.2 70 3.8 S 37 46 20 25 1017.1 1016.6 0.0
25/12:00pm 25.4 21.8 20.9 76 3.0 SSW 41 48 22 26 1017.2 1016.7 0.0
25/11:30am 25.8 22.7 19.7 69 4.0 S 35 41 19 22 1017.5 1017.0 0.0
25/11:00am 25.6 22.3 19.3 68 4.1 SSW 35 43 19 23 1017.9 1017.4 0.0
25/10:30am 25.5 23.3 18.7 66 4.3 SSW 28 35 15 19 1018.0 1017.5 0.0
25/10:00am 25.1 23.1 18.3 66 4.3 SSW 26 35 14 19 1018.1 1017.6 0.0
25/09:30am 24.2 23.1 19.5 75 3.0 SW 24 32 13 17 1017.9 1017.4 0.0
25/09:00am 23.1 21.9 19.3 79 2.4 SW 24 30 13 16 1017.8 1017.3 0.0
25/08:30am 21.7 19.9 18.7 83 1.9 SW 26 33 14 18 1017.6 1017.1 0.0
25/08:00am 20.7 18.8 18.5 87 1.4 SW 26 32 14 17 1017.5 1017.0 0.0
25/07:30am 20.2 18.1 18.1 88 1.3 WSW 26 35 14 19 1017.3 1016.8 0.0
25/07:00am 19.8 17.6 17.9 89 1.2 WSW 26 32 14 17 1017.0 1016.5 0.0
25/06:30am 19.8 17.6 17.8 88 1.2 WSW 26 32 14 17 1016.7 1016.2 0.0
25/06:00am 20.0 18.2 17.8 87 1.4 WSW 24 30 13 16 1016.7 1016.2 0.0
25/05:30am 20.1 18.4 18.1 88 1.2 WSW 24 28 13 15 1016.6 1016.1 0.0
25/05:00am 20.0 18.5 17.8 87 1.4 WSW 22 28 12 15 1016.4 1015.9 0.0
25/04:30am 20.3 19.3 17.9 86 1.5 SW 20 26 11 14 1016.3 1015.8 0.0
25/04:00am 20.9 20.1 17.9 83 1.9 SW 19 24 10 13 1016.3 1015.8 0.0
25/03:30am 21.2 20.7 17.8 81 2.1 SW 17 20 9 11 1016.6 1016.1 0.0
25/03:00am 21.4 21.0 18.0 81 2.1 SW 17 20 9 11 1016.6 1016.1 0.0
25/02:30am 21.7 21.4 17.3 76 2.7 SW 15 20 8 11 1016.7 1016.2 0.0
25/02:00am 23.0 21.9 16.3 66 4.1 SE 17 24 9 13 1016.9 1016.4 0.0
25/01:30am 23.0 22.5 16.8 68 3.8 SSE 15 19 8 10 1017.1 1016.6 0.0
25/01:00am 23.2 22.1 16.3 65 4.2 SSE 17 24 9 13 1017.5 1017.0 0.0
25/12:30am 23.3 21.6 17.1 68 3.8 SE 22 28 12 15 1017.6 1017.1 0.0
25/12:00am 23.4 23.1 17.4 69 3.7 ESE 15 22 8 12 1017.8 1017.3 0.0
 
Date/Time
EDT
Temp
°C
App
Temp
°C
Dew
Point
°C
Rel
Hum
%
Delta-T
°C
Wind Press
QNH
hPa
Press
MSL
hPa
Rain since
9am
mm
Dir  Spd
km/h
Gust
km/h
Spd
kts
Gust
kts
24/11:30pm 23.5 22.3 17.5 69 3.7 ESE 20 26 11 14 1017.9 1017.4 0.0
24/11:00pm 23.4 22.3 17.8 71 3.5 E 20 26 11 14 1017.9 1017.4 0.0
24/10:30pm 23.4 22.4 17.6 70 3.6 E 19 24 10 13 1018.2 1017.7 0.0
24/10:00pm 23.4 22.3 17.8 71 3.5 E 20 26 11 14 1018.3 1017.8 0.0
24/09:30pm 23.5 22.0 17.7 70 3.6 ESE 22 26 12 14 1018.2 1017.7 0.0
24/09:00pm 23.5 21.8 17.3 68 3.8 ESE 22 30 12 16 1018.2 1017.7 0.0
24/08:30pm 23.7 22.4 18.1 71 3.5 E 22 30 12 16 1017.9 1017.4 0.0
24/08:00pm 23.8 22.0 17.8 69 3.8 ESE 24 32 13 17 1017.7 1017.2 0.0
24/07:30pm 24.0 22.0 18.2 70 3.7 E 26 33 14 18 1017.5 1017.0 0.0
24/07:00pm 24.4 22.4 18.3 69 3.9 ESE 26 32 14 17 1017.5 1017.0 0.0
24/06:30pm 24.8 22.7 18.0 66 4.3 ESE 26 32 14 17 1017.5 1017.0 0.0
24/06:00pm 25.3 23.2 17.2 61 5.0 SE 24 30 13 16 1017.4 1016.9 0.0
24/05:30pm 26.0 24.5 17.6 60 5.3 SE 22 28 12 15 1017.3 1016.8 0.0
24/05:00pm 26.2 24.4 17.0 57 5.7 SE 22 30 12 16 1017.2 1016.7 0.0
24/04:30pm 26.4 24.8 16.6 55 6.1 SSE 20 26 11 14 1017.4 1016.9 0.0
24/04:00pm 26.5 24.7 16.1 52 6.4 SSE 20 28 11 15 1017.5 1017.0 0.0
24/03:30pm 26.5 23.5 16.7 55 6.1 SE 28 35 15 19 1017.6 1017.1 0.0
24/03:00pm 26.8 24.3 16.1 52 6.6 SE 24 33 13 18 1017.9 1017.4 0.0
24/02:30pm 27.2 24.6 15.9 50 7.0 SE 24 33 13 18 1018.2 1017.7 0.0
24/02:00pm 27.0 24.7 15.7 50 6.9 SSE 22 30 12 16 1018.6 1018.1 0.0
24/01:30pm 26.7 25.0 16.3 53 6.4 S 20 28 11 15 1019.0 1018.5 0.0
24/01:00pm 27.2 25.5 16.2 51 6.8 SE 20 28 11 15 1019.2 1018.7 0.0
24/12:30pm 27.5 26.1 16.5 51 6.8 SE 19 24 10 13 1019.5 1019.0 0.0
24/12:00pm 27.1 25.6 16.4 52 6.6 SE 19 24 10 13 1019.8 1019.3 0.0
24/11:30am 27.0 26.1 16.9 54 6.3 SSE 17 24 9 13 1019.9 1019.4 0.0
24/11:00am 25.6 24.0 16.5 57 5.6 S 20 24 11 13 1020.1 1019.6 0.0
24/10:30am 25.2 23.8 16.9 60 5.2 S 20 24 11 13 1020.2 1019.7 0.0
24/10:00am 24.7 23.9 17.2 63 4.7 SSW 17 22 9 12 1020.2 1019.7 0.0
24/09:30am 24.6 24.0 18.5 69 3.9 SSW 19 24 10 13 1020.1 1019.6 0.0
24/09:00am 23.8 24.3 19.3 76 2.9 SW 15 19 8 10 1019.9 1019.4 0.0
24/08:30am 22.3 22.2 18.7 80 2.3 SW 17 20 9 11 1019.6 1019.1 0.0
24/08:00am 21.1 20.8 18.3 84 1.7 SW 17 20 9 11 1019.4 1018.9 0.0
24/07:30am 20.8 20.0 18.0 84 1.7 WSW 19 22 10 12 1019.2 1018.7 0.0
24/07:00am 20.7 19.7 17.9 84 1.7 WSW 20 24 11 13 1018.8 1018.3 0.0
24/06:30am 20.5 20.0 17.7 84 1.7 WSW 17 20 9 11 1018.5 1018.0 0.0
24/06:00am 20.6 20.4 17.6 83 1.8 SW 15 19 8 10 1018.3 1017.8 0.0
24/05:30am 20.8 20.9 17.4 81 2.1 SW 13 17 7 9 1018.0 1017.5 0.0
24/05:00am 21.8 22.1 17.0 74 2.9 S 11 17 6 9 1017.9 1017.4 0.0
24/04:30am 21.6 21.4 16.8 74 2.9 SE 13 20 7 11 1018.0 1017.5 0.0
24/04:00am 22.0 22.8 17.2 74 3.0 S 9 13 5 7 1018.0 1017.5 0.0
24/03:30am 23.1 21.9 17.1 69 3.7 ESE 19 24 10 13 1018.2 1017.7 0.0
24/03:00am 23.2 21.4 17.0 68 3.8 ESE 22 28 12 15 1018.3 1017.8 0.0
24/02:30am 23.4 22.2 17.6 70 3.6 SE 20 26 11 14 1018.6 1018.1 0.0
24/02:00am 23.1 21.4 17.1 69 3.7 ESE 22 28 12 15 1018.8 1018.3 0.0
24/01:30am 23.3 21.0 17.5 70 3.6 ESE 26 32 14 17 1019.0 1018.5 0.0
24/01:00am 23.5 21.6 18.6 74 3.1 ESE 26 30 14 16 1019.3 1018.8 0.0
24/12:30am 23.6 22.2 18.9 75 3.0 ESE 24 30 13 16 1019.6 1019.1 0.0
24/12:00am 23.5 22.4 19.4 78 2.6 ESE 24 33 13 18 1019.6 1019.1 0.0
 
Date/Time
EDT
Temp
°C
App
Temp
°C
Dew
Point
°C
Rel
Hum
%
Delta-T
°C
Wind Press
QNH
hPa
Press
MSL
hPa
Rain since
9am
mm
Dir  Spd
km/h
Gust
km/h
Spd
kts
Gust
kts
23/11:30pm 23.3 21.5 19.5 79 2.4 E 28 33 15 18 1019.7 1019.2 0.0
23/11:00pm 23.7 22.4 19.8 79 2.5 ESE 26 33 14 18 1019.9 1019.4 0.0
23/10:30pm 23.9 21.4 17.2 66 4.2 SE 26 30 14 16 1020.1 1019.6 0.0
23/10:00pm 23.9 21.0 17.9 69 3.8 SE 30 35 16 19 1020.1 1019.6 0.0
23/09:30pm 23.8 21.1 17.5 68 3.9 ESE 28 33 15 18 1020.0 1019.5 0.0

Other Formats:

Comma delimited format used in spreadsheet applications
http://www.bom.gov.au/fwo/IDN60801/IDN60801.94599.axf

JavaScript Object Notation format (JSON) in row-major order
http://www.bom.gov.au/fwo/IDN60801/IDN60801.94599.json